Time;durP1;ratioP1;P1;durP2;ratioP2;P2;SDS_P1;SDS_P2;PMS_P1;PMS_P2;Temp;Humidity;BMP_temperature;BMP_pressure;BME280_temperature;BME280_humidity;BME280_pressure;Samples;Min_cycle;Max_cycle;Signal;HPM_P1;HPM_P2
2022/03/25 00:00:00;;;;;;;17.40;14.20;;;;;;;7.88;49.28;101600.41;5074800;28;20278;-77
2022/03/25 00:02:26;;;;;;;13.37;12.07;;;;;;;7.82;49.42;101590.81;5074679;28;20227;-77
2022/03/25 00:04:53;;;;;;;18.53;13.30;;;;;;;7.82;48.95;101593.41;5074052;28;20197;-76
2022/03/25 00:07:19;;;;;;;18.13;13.17;;;;;;;7.83;49.62;101592.56;5071739;28;20197;-76
2022/03/25 00:09:47;;;;;;;21.17;14.27;;;;;;;7.69;49.05;101583.72;5071609;28;20255;-76
2022/03/25 00:12:13;;;;;;;20.90;12.90;;;;;;;7.68;48.73;101590.66;5071697;28;20605;-76
2022/03/25 00:14:40;;;;;;;13.73;12.17;;;;;;;7.66;49.01;101592.38;5071729;28;20199;-76
2022/03/25 00:17:07;;;;;;;14.03;12.60;;;;;;;7.63;49.74;101601.84;5071831;28;20200;-76
2022/03/25 00:19:33;;;;;;;16.73;13.27;;;;;;;7.63;49.66;101592.34;5070755;28;20231;-76
2022/03/25 00:22:00;;;;;;;14.13;12.40;;;;;;;7.61;49.84;101587.97;5071876;28;20259;-76
2022/03/25 00:24:26;;;;;;;16.80;12.83;;;;;;;7.44;49.58;101596.44;5071255;28;20200;-77
2022/03/25 00:26:54;;;;;;;18.70;13.57;;;;;;;7.42;49.91;101584.28;5071567;28;20220;-76
2022/03/25 00:29:20;;;;;;;16.13;12.77;;;;;;;7.44;50.86;101573.06;5071717;28;20224;-76
2022/03/25 00:31:47;;;;;;;16.10;13.03;;;;;;;7.44;50.04;101567.84;5069150;28;20216;-76
2022/03/25 00:34:14;;;;;;;13.80;12.27;;;;;;;7.48;49.76;101569.63;5071381;28;20233;-76
2022/03/25 00:36:40;;;;;;;12.90;11.60;;;;;;;7.41;49.58;101577.34;5071580;28;20197;-76
2022/03/25 00:39:08;;;;;;;16.77;12.60;;;;;;;7.41;49.67;101573.00;5071091;28;20220;-76
2022/03/25 00:41:36;;;;;;;17.73;13.73;;;;;;;7.35;50.25;101565.13;5071649;28;20533;-76
2022/03/25 00:44:06;;;;;;;18.03;13.43;;;;;;;7.34;50.88;101550.41;5071354;28;20284;-76
2022/03/25 00:46:33;;;;;;;20.50;13.50;;;;;;;7.33;50.52;101539.16;5071660;28;20254;-76
2022/03/25 00:49:00;;;;;;;19.83;13.20;;;;;;;7.37;51.24;101537.47;5070701;28;20216;-77
2022/03/25 00:51:26;;;;;;;16.37;13.10;;;;;;;7.36;51.23;101535.72;5071509;28;20246;-76
2022/03/25 00:53:53;;;;;;;16.73;12.97;;;;;;;7.30;51.96;101525.28;5071311;28;20246;-76
2022/03/25 00:56:20;;;;;;;19.37;13.63;;;;;;;7.26;51.88;101505.31;5071516;28;20197;-76
2022/03/25 00:58:47;;;;;;;17.00;13.27;;;;;;;7.24;51.79;101500.09;5071047;28;20710;-76
2022/03/25 01:01:15;;;;;;;20.33;13.33;;;;;;;7.27;51.32;101507.03;5071406;28;20224;-76
2022/03/25 01:03:41;;;;;;;22.30;13.67;;;;;;;7.08;51.80;101508.56;5070843;28;20196;-76
2022/03/25 01:06:08;;;;;;;17.17;13.40;;;;;;;7.10;52.02;101509.44;5071622;28;20251;-76
2022/03/25 01:08:36;;;;;;;14.27;12.70;;;;;;;7.05;51.94;101516.28;5068578;28;20256;-76
2022/03/25 01:11:04;;;;;;;14.77;12.33;;;;;;;7.04;52.40;101506.78;5071082;28;20658;-77
2022/03/25 01:13:33;;;;;;;14.90;12.17;;;;;;;7.00;52.49;101500.66;5071305;28;20199;-76
2022/03/25 01:16:00;;;;;;;16.77;12.63;;;;;;;7.00;52.26;101499.78;5072663;28;20204;-77
2022/03/25 01:18:28;;;;;;;18.60;12.50;;;;;;;7.04;51.89;101488.59;5075415;28;20212;-76
2022/03/25 01:20:55;;;;;;;15.20;11.53;;;;;;;7.05;51.75;101491.19;5075526;28;20204;-76
2022/03/25 01:23:22;;;;;;;17.17;13.10;;;;;;;7.07;50.24;101514.59;5075319;28;20920;-76
2022/03/25 01:25:48;;;;;;;18.40;12.60;;;;;;;7.08;50.83;101530.19;5075220;28;20290;-76
2022/03/25 01:28:15;;;;;;;13.93;12.50;;;;;;;7.09;50.35;101537.09;5075139;28;20201;-76
2022/03/25 01:30:42;;;;;;;17.17;11.23;;;;;;;7.11;50.21;101540.59;5074882;28;20201;-77
2022/03/25 01:33:09;;;;;;;16.40;11.77;;;;;;;7.12;50.35;101546.69;5074843;28;20557;-76
2022/03/25 01:35:37;;;;;;;13.30;11.90;;;;;;;7.03;51.89;101534.44;5072141;28;20201;-76
2022/03/25 01:38:04;;;;;;;16.53;12.17;;;;;;;6.99;52.00;101509.28;5074915;28;20205;-77
2022/03/25 01:40:31;;;;;;;13.40;11.20;;;;;;;6.88;51.85;101505.69;5074605;28;20644;-76
2022/03/25 01:42:57;;;;;;;17.77;11.43;;;;;;;6.79;51.84;101493.47;5074832;28;20219;-76
2022/03/25 01:45:32;;;;;;;12.57;10.67;;;;;;;6.76;52.23;101489.09;5073406;28;20209;-76
2022/03/25 01:47:59;;;;;;;16.10;11.80;;;;;;;6.56;52.82;101486.22;5074748;28;20568;-76
2022/03/25 01:50:26;;;;;;;12.63;11.20;;;;;;;6.51;53.98;101464.53;5075026;28;20239;-76
2022/03/25 01:52:54;;;;;;;13.10;11.10;;;;;;;6.37;54.22;101447.91;5075215;28;20232;-76
2022/03/25 01:55:26;;;;;;;16.70;11.67;;;;;;;6.36;53.19;101457.41;5074469;28;20696;-76
2022/03/25 01:57:56;;;;;;;12.30;11.10;;;;;;;6.17;54.75;101437.25;5074901;28;20213;-76
2022/03/25 02:00:23;;;;;;;13.23;11.43;;;;;;;6.12;55.37;101411.22;5074878;28;20225;-76
2022/03/25 02:02:50;;;;;;;12.30;11.13;;;;;;;6.08;54.71;101406.84;5075206;28;20233;-76
2022/03/25 02:05:18;;;;;;;13.00;10.27;;;;;;;6.01;55.18;101406.75;5074503;28;20292;-77
2022/03/25 02:07:45;;;;;;;13.00;11.73;;;;;;;5.86;55.55;101395.25;5074596;28;20207;-76
2022/03/25 02:10:13;;;;;;;12.47;11.10;;;;;;;5.82;55.97;101379.66;5074474;28;20771;-76
2022/03/25 02:12:40;;;;;;;12.40;11.10;;;;;;;5.77;56.36;101367.50;5074760;28;20225;-76
2022/03/25 02:15:08;;;;;;;16.10;12.00;;;;;;;5.66;57.32;101350.91;5074483;28;20204;-76
2022/03/25 02:17:34;;;;;;;14.23;11.00;;;;;;;5.54;57.58;101335.16;5074571;28;20208;-76
2022/03/25 02:20:07;;;;;;;12.23;10.93;;;;;;;5.56;57.50;101329.16;5074354;28;20232;-76
2022/03/25 02:22:35;;;;;;;16.97;10.17;;;;;;;5.61;57.63;101321.50;5074414;28;20205;-76
2022/03/25 02:25:03;;;;;;;12.80;10.83;;;;;;;5.70;57.19;101328.50;5074180;28;20218;-76
2022/03/25 02:27:30;;;;;;;13.03;10.07;;;;;;;5.75;56.56;101350.19;5073273;28;20208;-76
2022/03/25 02:29:56;;;;;;;13.70;11.20;;;;;;;5.77;56.20;101359.72;5074304;28;20492;-76
2022/03/25 02:32:22;;;;;;;12.17;10.73;;;;;;;5.83;56.27;101374.50;5074069;28;20635;-76
2022/03/25 02:34:49;;;;;;;14.63;11.27;;;;;;;5.90;54.82;101389.28;5074024;28;20205;-76
2022/03/25 02:37:15;;;;;;;14.73;11.17;;;;;;;5.86;54.06;101428.94;5074105;28;20211;-76
2022/03/25 02:39:43;;;;;;;12.77;11.47;;;;;;;5.88;55.82;101405.66;5065962;28;20271;-76
2022/03/25 02:42:10;;;;;;;14.10;11.87;;;;;;;5.97;55.63;101409.28;5074299;28;20208;-76
2022/03/25 02:44:36;;;;;;;17.43;12.47;;;;;;;5.95;55.84;101397.16;5073837;28;20213;-76
2022/03/25 02:47:04;;;;;;;12.53;11.27;;;;;;;5.95;55.50;101390.25;5073859;28;20204;-76
2022/03/25 02:49:30;;;;;;;13.23;11.87;;;;;;;5.94;55.61;101396.25;5074134;28;20294;-76
2022/03/25 02:51:57;;;;;;;14.00;11.17;;;;;;;5.89;56.55;101391.88;5074031;28;20229;-76
2022/03/25 02:54:24;;;;;;;14.97;12.00;;;;;;;5.82;57.14;101358.91;5073855;28;20204;-76
2022/03/25 02:56:52;;;;;;;17.63;12.40;;;;;;;5.77;57.06;101356.28;5074076;28;20277;-76
2022/03/25 02:59:18;;;;;;;12.03;10.80;;;;;;;5.78;57.67;101340.72;5073783;28;20235;-76
2022/03/25 03:01:45;;;;;;;13.33;11.10;;;;;;;5.76;57.69;101342.41;5073859;28;20201;-76
2022/03/25 03:04:11;;;;;;;14.43;11.77;;;;;;;5.73;58.28;101329.44;5073624;28;20253;-76
2022/03/25 03:06:38;;;;;;;15.30;12.00;;;;;;;5.58;58.65;101314.50;5073806;28;20205;-76
2022/03/25 03:09:05;;;;;;;13.07;11.77;;;;;;;5.67;58.30;101310.31;5073520;28;20263;-76
2022/03/25 03:11:31;;;;;;;20.00;12.00;;;;;;;5.74;57.16;101325.13;5073306;28;20204;-76
2022/03/25 03:13:59;;;;;;;15.23;10.30;;;;;;;5.71;55.86;101375.16;5073328;28;20601;-76
2022/03/25 03:16:26;;;;;;;18.43;9.87;;;;;;;5.75;56.02;101389.91;5073328;28;20629;-76
2022/03/25 03:18:52;;;;;;;12.97;10.80;;;;;;;5.77;55.17;101400.31;5073474;28;20244;-76
2022/03/25 03:21:20;;;;;;;16.10;11.70;;;;;;;5.68;55.11;101416.56;5073747;28;20204;-76
2022/03/25 03:23:47;;;;;;;12.83;11.47;;;;;;;5.64;55.61;101411.31;5073304;28;20209;-76
2022/03/25 03:26:13;;;;;;;15.37;12.33;;;;;;;5.58;54.88;101428.47;5073411;28;20266;-75
2022/03/25 03:28:40;;;;;;;21.60;13.50;;;;;;;5.54;55.78;101418.03;5072870;28;20305;-76
2022/03/25 03:31:09;;;;;;;21.00;13.70;;;;;;;5.58;55.50;101422.44;5073052;28;20768;-76
2022/03/25 03:33:35;;;;;;;21.23;14.50;;;;;;;5.54;55.80;101413.72;5073011;28;20603;-76
2022/03/25 03:36:02;;;;;;;15.57;14.00;;;;;;;5.58;56.17;101414.66;5073076;28;20258;-76
2022/03/25 03:38:28;;;;;;;16.03;14.13;;;;;;;5.51;56.57;101389.50;5072371;28;20735;-76
2022/03/25 03:40:54;;;;;;;17.77;13.27;;;;;;;5.33;57.31;101383.16;5072865;28;20205;-76
2022/03/25 03:43:21;;;;;;;14.07;12.63;;;;;;;5.17;57.88;101350.97;5073137;28;20204;-76
2022/03/25 03:45:48;;;;;;;17.07;12.93;;;;;;;5.07;58.83;101343.84;5072949;28;20211;-76
2022/03/25 03:48:16;;;;;;;18.23;12.30;;;;;;;4.86;59.74;101310.72;5072542;28;20209;-76
2022/03/25 03:50:43;;;;;;;14.47;12.60;;;;;;;4.93;58.51;101307.38;5072774;28;20579;-76
2022/03/25 03:53:09;;;;;;;14.13;12.23;;;;;;;4.88;59.10;101300.41;5072613;28;20238;-76
2022/03/25 03:55:36;;;;;;;16.27;11.17;;;;;;;4.90;58.27;101307.34;5072340;28;20204;-76
2022/03/25 03:58:02;;;;;;;12.87;11.50;;;;;;;4.86;59.02;101313.31;5072641;28;20258;-76
2022/03/25 04:00:29;;;;;;;11.17;9.90;;;;;;;4.86;58.35;101318.47;5072674;28;20293;-76
2022/03/25 04:02:55;;;;;;;14.13;10.87;;;;;;;4.93;57.51;101332.38;5072526;28;20209;-76
2022/03/25 04:05:23;;;;;;;17.80;11.60;;;;;;;4.95;57.48;101344.50;5072214;28;20211;-76
2022/03/25 04:07:50;;;;;;;13.57;10.20;;;;;;;4.95;58.16;101348.81;5072170;28;20201;-76
2022/03/25 04:10:18;;;;;;;15.23;11.30;;;;;;;4.96;57.78;101347.97;5072359;28;20317;-76
2022/03/25 04:12:45;;;;;;;17.27;11.33;;;;;;;5.02;56.88;101365.34;5072307;28;20277;-75
2022/03/25 04:15:13;;;;;;;12.53;10.90;;;;;;;5.08;56.09;101388.75;5072232;28;20205;-76
2022/03/25 04:17:40;;;;;;;17.20;12.10;;;;;;;5.00;56.53;101408.44;5072228;28;20219;-76
2022/03/25 04:20:08;;;;;;;13.07;10.20;;;;;;;4.92;56.92;101393.59;5072669;28;20224;-76
2022/03/25 04:22:36;;;;;;;14.30;11.37;;;;;;;5.02;56.79;101394.66;5072290;28;20290;-76
2022/03/25 04:25:04;;;;;;;12.27;11.07;;;;;;;4.96;56.23;101395.41;5072162;28;20205;-75
2022/03/25 04:27:31;;;;;;;12.40;11.10;;;;;;;4.96;55.39;101417.84;5072308;28;20211;-76
2022/03/25 04:29:57;;;;;;;20.40;11.57;;;;;;;4.85;55.11;101434.84;5072154;28;20225;-76
2022/03/25 04:32:24;;;;;;;14.50;11.70;;;;;;;4.78;56.01;101432.13;5071971;28;20228;-76
2022/03/25 04:34:50;;;;;;;14.83;11.03;;;;;;;4.80;55.77;101429.59;5071719;28;20205;-76
2022/03/25 04:37:17;;;;;;;14.40;11.87;;;;;;;4.85;55.85;101425.38;5072056;28;20701;-76
2022/03/25 04:39:44;;;;;;;15.20;12.73;;;;;;;4.61;56.70;101424.88;5071868;28;20215;-76
2022/03/25 04:42:11;;;;;;;12.97;11.13;;;;;;;4.69;57.00;101407.78;5071934;28;20200;-76
2022/03/25 04:44:37;;;;;;;11.43;10.23;;;;;;;4.69;57.17;101393.13;5071802;28;20263;-76
2022/03/25 04:47:04;;;;;;;12.33;10.03;;;;;;;4.74;57.45;101386.34;5071306;28;20241;-76
2022/03/25 04:49:31;;;;;;;13.13;10.70;;;;;;;4.82;57.40;101375.31;5071879;28;20256;-76
2022/03/25 04:51:57;;;;;;;14.93;9.80;;;;;;;4.87;57.36;101379.69;5071497;28;20334;-75
2022/03/25 04:54:23;;;;;;;12.27;10.10;;;;;;;4.89;57.15;101393.53;5071660;28;20204;-76
2022/03/25 04:56:51;;;;;;;12.83;9.60;;;;;;;4.83;57.27;101382.22;5071657;28;20739;-76
2022/03/25 04:59:18;;;;;;;11.87;10.23;;;;;;;4.81;56.90;101400.28;5071807;28;20322;-76
2022/03/25 05:01:44;;;;;;;14.40;10.03;;;;;;;4.79;56.70;101407.13;5071653;28;20209;-76
2022/03/25 05:04:10;;;;;;;18.73;10.43;;;;;;;4.80;56.76;101413.16;5071728;28;20201;-76
2022/03/25 05:06:37;;;;;;;13.30;10.47;;;;;;;4.77;56.68;101416.56;5071981;28;20213;-76
2022/03/25 05:09:03;;;;;;;12.37;10.73;;;;;;;4.77;57.01;101414.84;5071438;28;20225;-76
2022/03/25 05:11:30;;;;;;;11.70;9.27;;;;;;;4.76;57.97;101402.78;5071635;28;20211;-76
2022/03/25 05:13:57;;;;;;;18.00;10.00;;;;;;;4.56;59.41;101366.16;5071322;28;20254;-76
2022/03/25 05:16:24;;;;;;;22.77;10.83;;;;;;;4.47;59.37;101347.00;5071715;28;20216;-76
2022/03/25 05:18:51;;;;;;;10.83;9.70;;;;;;;4.43;59.66;101327.97;5071833;28;20262;-76
2022/03/25 05:21:18;;;;;;;14.60;9.20;;;;;;;4.47;59.17;101324.59;5071725;28;20207;-76
2022/03/25 05:23:44;;;;;;;12.77;10.23;;;;;;;4.42;59.68;101336.59;5071234;28;20204;-76
2022/03/25 05:26:11;;;;;;;11.10;9.43;;;;;;;4.44;60.17;101331.41;5071465;28;20207;-76
2022/03/25 05:28:37;;;;;;;12.00;9.47;;;;;;;4.45;59.65;101326.28;5071320;28;20273;-75
2022/03/25 05:31:05;;;;;;;11.70;10.10;;;;;;;4.51;59.34;101331.59;5071638;28;20207;-75
2022/03/25 05:33:32;;;;;;;12.70;9.53;;;;;;;4.61;58.93;101339.53;5071429;28;20278;-76
2022/03/25 05:35:58;;;;;;;11.60;9.60;;;;;;;4.63;59.71;101341.28;5071545;28;20208;-76
2022/03/25 05:38:24;;;;;;;12.10;9.83;;;;;;;4.62;59.54;101352.50;5071333;28;20208;-75
2022/03/25 05:40:51;;;;;;;11.93;10.07;;;;;;;4.55;59.72;101353.19;5071288;28;20212;-76
2022/03/25 05:43:17;;;;;;;14.20;10.23;;;;;;;4.53;58.14;101376.44;5071137;28;20687;-76
2022/03/25 05:45:45;;;;;;;11.27;10.13;;;;;;;4.40;59.47;101361.53;5071706;28;20212;-75
2022/03/25 05:48:12;;;;;;;12.23;10.27;;;;;;;4.40;59.98;101352.88;5071134;28;20238;-76
2022/03/25 05:50:39;;;;;;;20.70;10.37;;;;;;;4.38;60.66;101338.22;5071373;28;20203;-77
2022/03/25 05:53:06;;;;;;;11.47;10.17;;;;;;;4.26;61.90;101303.47;5071281;28;20225;-74
2022/03/25 05:55:33;;;;;;;14.27;9.83;;;;;;;4.26;63.04;101264.72;5070848;28;20214;-76
2022/03/25 05:58:01;;;;;;;17.30;10.37;;;;;;;4.29;62.51;101257.03;5071315;28;20214;-76
2022/03/25 06:00:27;;;;;;;13.40;11.40;;;;;;;4.41;61.75;101267.63;5071300;28;20318;-76
2022/03/25 06:02:54;;;;;;;12.17;10.93;;;;;;;4.51;62.32;101266.94;5074067;28;20211;-74
2022/03/25 06:05:21;;;;;;;13.03;10.07;;;;;;;4.49;63.55;101255.72;5074620;28;20216;-75
2022/03/25 06:07:48;;;;;;;14.67;10.13;;;;;;;4.49;63.26;101253.13;5074569;28;20258;-76
2022/03/25 06:10:16;;;;;;;12.20;9.83;;;;;;;4.52;63.37;101253.19;5074629;28;20641;-76
2022/03/25 06:12:43;;;;;;;15.90;10.80;;;;;;;4.57;62.80;101261.88;5074804;28;20279;-77
2022/03/25 06:15:10;;;;;;;17.10;10.93;;;;;;;4.62;62.91;101271.44;5074575;28;20215;-76
2022/03/25 06:17:45;;;;;;;12.17;10.83;;;;;;;4.61;61.92;101287.81;5074594;28;20259;-75
2022/03/25 06:20:13;;;;;;;21.83;12.23;;;;;;;4.61;62.12;101295.56;5074439;28;20230;-76
2022/03/25 06:22:41;;;;;;;12.87;10.43;;;;;;;4.62;62.10;101290.44;5074336;28;20693;-76
2022/03/25 06:25:08;;;;;;;14.67;12.23;;;;;;;4.54;61.33;101305.81;5074557;28;20210;-78
2022/03/25 06:27:34;;;;;;;14.97;12.17;;;;;;;4.59;61.92;101321.41;5074751;28;20264;-77
2022/03/25 06:30:01;;;;;;;13.63;12.10;;;;;;;4.69;61.79;101319.88;5074863;28;20228;-77
2022/03/25 06:32:27;;;;;;;17.83;12.80;;;;;;;4.76;62.25;101317.44;5074220;28;20673;-76
2022/03/25 06:34:54;;;;;;;15.77;13.67;;;;;;;4.76;62.46;101319.16;5073913;28;20214;-77
2022/03/25 06:37:21;;;;;;;18.27;12.40;;;;;;;4.76;62.37;101311.38;5074224;28;20576;-77
2022/03/25 06:39:49;;;;;;;15.27;12.60;;;;;;;4.81;62.63;101302.00;5074148;28;20218;-76
2022/03/25 06:42:16;;;;;;;14.13;12.63;;;;;;;4.93;62.63;101301.34;5074213;28;20257;-76
2022/03/25 06:44:42;;;;;;;16.50;11.37;;;;;;;5.01;62.68;101311.84;5073821;28;20742;-76
2022/03/25 06:47:08;;;;;;;19.17;11.30;;;;;;;5.09;62.21;101307.66;5073537;28;20212;-77
2022/03/25 06:49:35;;;;;;;14.07;11.77;;;;;;;5.17;61.42;101345.78;5074178;28;20231;-76
2022/03/25 06:52:02;;;;;;;19.57;11.40;;;;;;;5.22;60.69;101356.22;5074243;28;20214;-76
2022/03/25 06:54:29;;;;;;;15.27;10.87;;;;;;;5.31;60.37;101369.31;5073632;28;20286;-75
2022/03/25 06:56:58;;;;;;;16.53;12.20;;;;;;;5.40;60.88;101378.09;5073125;28;20220;-76
2022/03/25 06:59:25;;;;;;;13.23;10.90;;;;;;;5.50;61.06;101377.41;5072646;28;20597;-76
2022/03/25 07:01:52;;;;;;;14.57;10.73;;;;;;;5.57;59.83;101398.25;5073429;28;20209;-76
2022/03/25 07:04:19;;;;;;;13.80;10.43;;;;;;;5.56;58.19;101443.09;5073104;28;20211;-77
2022/03/25 07:06:49;;;;;;;15.27;10.70;;;;;;;5.57;60.28;101431.91;5073665;28;20202;-76
2022/03/25 07:09:16;;;;;;;17.73;11.37;;;;;;;5.63;62.84;101362.91;5072936;28;20293;-76
2022/03/25 07:11:43;;;;;;;13.60;10.70;;;;;;;5.64;63.90;101328.41;5073085;28;20197;-76
2022/03/25 07:14:11;;;;;;;13.87;11.17;;;;;;;5.68;61.83;101354.38;5071443;28;20224;-76
2022/03/25 07:16:42;;;;;;;11.20;10.00;;;;;;;5.77;57.37;101450.41;5073246;28;20207;-76
2022/03/25 07:19:08;;;;;;;15.13;10.43;;;;;;;5.88;55.03;101504.09;5073803;28;20328;-77
2022/03/25 07:21:35;;;;;;;13.83;11.30;;;;;;;6.03;53.32;101577.00;5073609;28;20662;-78
2022/03/25 07:24:01;;;;;;;13.30;9.97;;;;;;;6.15;52.11;101610.91;5070618;28;20213;-77
2022/03/25 07:26:28;;;;;;;12.00;9.73;;;;;;;6.25;52.15;101639.59;5075049;28;20208;-77
2022/03/25 07:28:54;;;;;;;14.43;10.63;;;;;;;6.31;54.43;101622.41;5073220;28;20216;-76
2022/03/25 07:31:27;;;;;;;16.90;10.07;;;;;;;6.38;52.45;101631.16;5073085;28;20200;-77
2022/03/25 07:33:54;;;;;;;15.53;9.97;;;;;;;6.49;52.40;101678.06;5072349;28;20314;-77
2022/03/25 07:36:21;;;;;;;12.53;10.77;;;;;;;6.56;52.55;101678.19;5072954;28;20200;-75
2022/03/25 07:38:47;;;;;;;13.63;10.83;;;;;;;6.61;52.03;101674.81;5072237;28;20224;-76
2022/03/25 07:41:14;;;;;;;12.80;11.47;;;;;;;6.64;52.63;101667.94;5072663;28;20208;-75
2022/03/25 07:43:40;;;;;;;13.17;10.50;;;;;;;6.76;53.16;101677.66;5072397;28;20201;-76
2022/03/25 07:46:07;;;;;;;18.77;11.50;;;;;;;6.85;52.15;101695.97;5072711;28;20200;-76
2022/03/25 07:48:35;;;;;;;13.53;11.23;;;;;;;6.88;52.12;101711.59;5072841;28;20228;-76
2022/03/25 07:51:02;;;;;;;12.80;11.30;;;;;;;6.94;52.42;101710.84;5072875;28;20204;-76
2022/03/25 07:53:29;;;;;;;20.77;12.27;;;;;;;6.96;51.22;101706.53;5072114;28;20232;-77
2022/03/25 07:56:02;;;;;;;18.17;12.70;;;;;;;6.97;52.03;101737.69;5072326;28;20197;-75
2022/03/25 07:58:29;;;;;;;17.73;12.40;;;;;;;7.00;51.08;101730.81;5084272;22;20289;-74
2022/03/25 08:00:56;;;;;;;16.67;11.60;;;;;;;7.03;52.69;101725.69;5071469;28;20201;-73
2022/03/25 08:03:22;;;;;;;18.57;11.83;;;;;;;7.05;52.77;101732.63;5072465;28;20260;-73
2022/03/25 08:05:50;;;;;;;15.17;12.70;;;;;;;7.12;53.61;101707.66;5072005;28;20208;-74
2022/03/25 08:08:19;;;;;;;18.70;13.33;;;;;;;7.20;53.90;101681.81;5069279;28;20722;-73
2022/03/25 08:10:47;;;;;;;15.77;13.10;;;;;;;7.27;53.52;101663.72;5071951;28;20204;-73
2022/03/25 08:13:15;;;;;;;15.53;12.83;;;;;;;7.35;54.42;101675.13;5070791;28;20197;-74
2022/03/25 08:15:42;;;;;;;17.43;13.40;;;;;;;7.43;53.95;101676.94;5071768;28;20197;-73
2022/03/25 08:18:10;;;;;;;16.20;12.27;;;;;;;7.54;54.89;101667.56;5072403;28;20197;-73
2022/03/25 08:20:39;;;;;;;18.93;12.93;;;;;;;7.66;55.41;101665.13;5069491;28;20239;-74
2022/03/25 08:23:10;;;;;;;22.13;13.70;;;;;;;7.81;55.87;101629.78;5070091;28;20203;-74
2022/03/25 08:28:20;;;;;;;19.37;13.37;;;;;;;8.03;55.97;101633.53;5069458;28;20203;-74
2022/03/25 08:30:48;;;;;;;19.33;12.80;;;;;;;8.12;53.53;101665.66;5071918;28;20193;-73
2022/03/25 08:33:15;;;;;;;22.10;13.07;;;;;;;8.22;53.33;101718.66;5071493;28;20556;-74
2022/03/25 08:35:43;;;;;;;16.50;13.33;;;;;;;8.35;51.68;101741.38;5071399;28;20201;-73
2022/03/25 08:38:12;;;;;;;15.20;11.70;;;;;;;8.50;51.38;101776.25;5071212;28;20197;-73
2022/03/25 08:40:40;;;;;;;13.83;12.27;;;;;;;8.66;50.12;101819.81;5069451;28;20200;-73
2022/03/25 08:43:07;;;;;;;15.50;12.27;;;;;;;8.79;49.58;101840.78;5071384;28;20290;-73
2022/03/25 08:45:34;;;;;;;14.30;11.37;;;;;;;8.86;45.75;101882.53;5071191;28;20234;-73
2022/03/25 08:48:01;;;;;;;14.20;10.33;;;;;;;9.02;47.29;101939.97;5071409;28;20207;-73
2022/03/25 08:50:27;;;;;;;12.87;11.43;;;;;;;9.27;52.11;101795.22;5071324;28;20220;-73
2022/03/25 08:52:54;;;;;;;13.83;11.60;;;;;;;9.44;55.52;101770.16;5070953;28;20203;-73
2022/03/25 08:55:22;;;;;;;16.43;12.70;;;;;;;9.57;52.24;101734.63;5071320;28;20213;-73
2022/03/25 08:57:49;;;;;;;14.70;11.20;;;;;;;9.72;51.44;101775.56;5071144;28;20657;-73
2022/03/25 09:00:18;;;;;;;20.43;12.23;;;;;;;9.84;51.88;101832.16;5070257;28;20225;-73
2022/03/25 09:02:45;;;;;;;15.93;12.33;;;;;;;9.94;48.96;101824.38;5069854;28;20204;-73
2022/03/25 09:05:13;;;;;;;15.70;11.93;;;;;;;10.13;49.48;101785.38;5071100;28;20197;-73
2022/03/25 09:07:40;;;;;;;14.53;12.97;;;;;;;10.24;49.85;101851.50;5071607;28;20203;-73
2022/03/25 09:10:09;;;;;;;18.60;13.33;;;;;;;10.24;46.90;101875.00;5071129;28;20213;-73
2022/03/25 09:12:37;;;;;;;15.47;12.90;;;;;;;10.37;49.47;101880.34;5071354;28;20220;-73
2022/03/25 09:15:05;;;;;;;20.63;13.93;;;;;;;10.44;49.44;101882.09;5070979;28;20225;-73
2022/03/25 09:17:32;;;;;;;18.80;13.60;;;;;;;10.44;46.62;101936.91;5071596;28;20209;-72
2022/03/25 09:19:58;;;;;;;16.50;12.90;;;;;;;10.43;45.30;101962.16;5071277;28;20278;-73
2022/03/25 09:22:25;;;;;;;16.80;12.83;;;;;;;10.51;46.10;101985.69;5071792;28;20204;-73
2022/03/25 09:24:52;;;;;;;19.23;12.47;;;;;;;10.60;47.17;101995.31;5070687;28;20196;-73
2022/03/25 09:27:18;;;;;;;19.63;13.53;;;;;;;10.50;46.16;101989.16;5071533;28;20209;-73
2022/03/25 09:29:46;;;;;;;16.30;13.17;;;;;;;10.54;45.84;101993.53;5070879;28;20220;-73
2022/03/25 09:32:13;;;;;;;16.67;14.43;;;;;;;10.65;47.02;101970.97;5070917;28;20658;-73
2022/03/25 09:37:23;;;;;;;19.03;14.00;;;;;;;10.83;47.68;101980.63;5072045;28;20563;-73
2022/03/25 09:39:51;;;;;;;16.37;13.20;;;;;;;10.90;47.02;101986.75;5074927;28;20714;-73
2022/03/25 09:42:19;;;;;;;19.17;14.53;;;;;;;10.93;46.14;101992.88;5075089;28;20575;-73
2022/03/25 09:44:48;;;;;;;17.57;12.90;;;;;;;11.10;48.06;101979.91;5074582;28;20628;-73
2022/03/25 09:47:16;;;;;;;24.57;14.13;;;;;;;11.21;47.54;101945.94;5075325;28;20211;-73
2022/03/25 09:49:43;;;;;;;19.10;14.77;;;;;;;11.29;48.43;101946.81;5075120;28;20695;-73
2022/03/25 09:52:09;;;;;;;20.53;13.83;;;;;;;11.40;46.47;101967.78;5075117;28;20205;-73
2022/03/25 09:54:36;;;;;;;21.17;14.20;;;;;;;11.47;45.57;101994.81;5074848;28;20724;-73
2022/03/25 09:57:03;;;;;;;22.17;15.20;;;;;;;11.55;45.75;102040.16;5074766;28;20213;-73
2022/03/25 09:59:30;;;;;;;20.17;14.30;;;;;;;11.63;45.50;102041.03;5074471;28;20276;-73
2022/03/25 10:01:58;;;;;;;17.77;14.63;;;;;;;11.70;44.09;102041.94;5075013;28;20210;-73
2022/03/25 10:04:42;;;;;;;21.70;15.57;;;;;;;11.80;44.47;102063.78;5074423;28;20211;-73
2022/03/25 10:07:16;;;;;;;19.90;15.60;;;;;;;11.89;45.28;102064.69;5074725;28;20214;-73
2022/03/25 10:09:43;;;;;;;22.90;15.20;;;;;;;12.00;44.26;102063.84;5074680;28;20750;-73
2022/03/25 10:12:23;;;;;;;21.93;15.33;;;;;;;12.07;44.28;102070.81;5075024;28;20561;-73
2022/03/25 10:14:51;;;;;;;26.80;16.30;;;;;;;12.18;44.25;102058.59;5073746;28;20221;-73
2022/03/25 10:17:19;;;;;;;20.03;15.63;;;;;;;12.27;43.87;102068.22;5074291;28;20196;-73
2022/03/25 10:19:51;;;;;;;18.13;14.70;;;;;;;12.36;42.29;102111.88;5071097;28;20299;-73
2022/03/25 10:22:18;;;;;;;17.53;14.93;;;;;;;12.40;41.67;102147.66;5074069;28;20209;-72
2022/03/25 10:24:47;;;;;;;18.97;16.23;;;;;;;12.37;39.67;102181.69;5073108;28;20546;-73
2022/03/25 10:27:17;;;;;;;22.47;16.23;;;;;;;12.42;41.63;102207.00;5075151;28;20720;-73
2022/03/25 10:29:47;;;;;;;20.50;16.67;;;;;;;12.54;43.52;102158.16;5074332;28;20219;-73
2022/03/25 10:32:15;;;;;;;23.97;16.57;;;;;;;12.70;44.48;102100.53;5076731;28;20206;-73
2022/03/25 10:34:44;;;;;;;30.57;17.47;;;;;;;12.78;43.47;102097.88;5078210;28;20224;-73
2022/03/25 10:37:12;;;;;;;22.03;17.10;;;;;;;12.86;43.20;102106.63;5086479;28;20207;-73
2022/03/25 10:39:40;;;;;;;24.60;17.17;;;;;;;12.94;43.16;102109.19;5077263;28;20279;-73
2022/03/25 10:42:09;;;;;;;20.63;16.93;;;;;;;12.97;43.22;102103.97;5074147;28;20749;-73
2022/03/25 10:44:37;;;;;;;25.77;18.57;;;;;;;12.98;44.64;102104.81;5073849;28;20289;-73
2022/03/25 10:47:26;;;;;;;25.07;17.67;;;;;;;13.04;44.81;102095.22;5074221;28;20203;-73
2022/03/25 10:49:54;;;;;;;27.37;18.57;;;;;;;13.23;44.59;102061.06;5073301;28;20227;-73
2022/03/25 10:52:23;;;;;;;22.60;17.97;;;;;;;13.38;45.63;102042.69;5073711;28;20199;-73
2022/03/25 10:54:50;;;;;;;19.90;17.90;;;;;;;13.49;43.45;102072.34;5073733;28;20249;-73
2022/03/25 10:57:18;;;;;;;23.90;18.40;;;;;;;13.61;43.51;102102.03;5073948;28;20263;-73
2022/03/25 10:59:58;;;;;;;25.63;18.27;;;;;;;13.66;43.16;102118.63;5073542;28;20627;-73
2022/03/25 11:02:24;;;;;;;24.00;18.30;;;;;;;13.77;43.08;102127.31;5073713;28;20225;-73
2022/03/25 11:04:52;;;;;;;22.80;18.53;;;;;;;13.88;43.07;102132.50;5073441;28;20261;-73
2022/03/25 11:07:22;;;;;;;29.83;19.77;;;;;;;14.02;44.20;102114.91;5073446;28;20203;-73
2022/03/25 11:09:50;;;;;;;25.43;20.93;;;;;;;14.36;45.39;102077.03;5073817;28;20313;-73
2022/03/25 11:12:17;;;;;;;23.33;20.47;;;;;;;14.61;43.09;102026.03;5073447;28;20265;-73
2022/03/25 11:14:44;;;;;;;25.53;21.20;;;;;;;14.65;41.52;102132.88;5073125;28;20226;-73
2022/03/25 11:17:11;;;;;;;30.70;23.77;;;;;;;14.73;44.63;102135.44;5073468;28;20208;-73
2022/03/25 11:19:39;;;;;;;31.73;24.90;;;;;;;14.85;44.39;102105.53;5073299;28;20266;-73
2022/03/25 11:22:07;;;;;;;30.97;22.90;;;;;;;15.01;41.55;102109.75;5073394;28;20735;-73